createdAt,value
2019-05-26T00:01:57.475Z,70.80
2019-05-26T00:04:28.195Z,71.30
2019-05-26T00:06:58.038Z,71.10
2019-05-26T00:09:27.854Z,71.00
2019-05-26T00:11:57.768Z,70.70
2019-05-26T00:14:27.740Z,70.80
2019-05-26T00:16:57.515Z,71.30
2019-05-26T00:19:27.310Z,71.40
2019-05-26T00:21:57.123Z,71.50
2019-05-26T00:24:27.036Z,72.10
2019-05-26T00:26:56.795Z,71.90
2019-05-26T00:29:26.680Z,71.80
2019-05-26T00:31:56.631Z,71.80
2019-05-26T00:34:26.559Z,72.00
2019-05-26T00:36:56.491Z,71.80
2019-05-26T00:39:27.735Z,72.10
2019-05-26T00:41:57.715Z,72.30
2019-05-26T00:44:27.578Z,72.60
2019-05-26T00:46:58.575Z,72.50
2019-05-26T00:49:28.422Z,72.10
2019-05-26T00:51:58.295Z,72.30
2019-05-26T00:54:28.277Z,72.40
2019-05-26T00:56:58.155Z,72.30
2019-05-26T00:59:27.915Z,72.40
2019-05-26T01:01:57.841Z,72.70
2019-05-26T01:04:27.582Z,72.60
2019-05-26T01:06:57.495Z,72.80
2019-05-26T01:09:27.334Z,73.00
2019-05-26T01:11:57.179Z,72.80
2019-05-26T01:14:27.040Z,72.80
2019-05-26T01:16:56.670Z,72.90
2019-05-26T01:19:26.534Z,73.10
2019-05-26T01:21:56.302Z,72.90
2019-05-26T01:24:26.059Z,73.00
2019-05-26T01:26:55.830Z,73.00
2019-05-26T01:29:25.677Z,73.40
2019-05-26T01:31:55.588Z,73.50
2019-05-26T01:34:25.580Z,73.50
2019-05-26T01:36:55.842Z,73.50
2019-05-26T01:39:25.792Z,73.70
2019-05-26T01:41:55.565Z,73.70
2019-05-26T01:44:25.443Z,73.50
2019-05-26T01:46:55.317Z,73.10
2019-05-26T01:49:38.108Z,73.50
2019-05-26T01:52:08.020Z,73.70
2019-05-26T01:54:40.772Z,73.70
2019-05-26T01:57:09.266Z,73.90
2019-05-26T01:59:39.626Z,74.10
2019-05-26T02:02:09.552Z,74.30
2019-05-26T02:04:39.327Z,74.40
2019-05-26T02:07:09.167Z,74.60
2019-05-26T02:09:38.959Z,74.20
2019-05-26T02:12:09.139Z,74.40
2019-05-26T02:14:38.937Z,74.50
2019-05-26T02:17:08.935Z,74.70
2019-05-26T02:19:38.803Z,74.90
2019-05-26T02:22:09.754Z,75.00
2019-05-26T02:24:39.527Z,75.30
2019-05-26T02:27:09.282Z,75.00
2019-05-26T02:29:39.047Z,75.10
2019-05-26T02:32:08.893Z,75.30
2019-05-26T02:34:38.867Z,74.90
2019-05-26T02:37:08.661Z,74.80
2019-05-26T02:39:38.412Z,75.10
2019-05-26T02:42:08.292Z,75.10
2019-05-26T02:44:38.181Z,75.10
2019-05-26T02:47:08.054Z,75.00
2019-05-26T02:49:37.852Z,75.00
2019-05-26T02:52:07.691Z,75.00
2019-05-26T02:54:37.342Z,75.00
2019-05-26T02:57:07.267Z,75.20
2019-05-26T02:59:37.055Z,75.20
2019-05-26T03:02:06.972Z,75.20
2019-05-26T03:04:36.959Z,74.20
2019-05-26T03:07:06.888Z,74.30
2019-05-26T03:09:38.869Z,74.50
2019-05-26T03:12:08.845Z,75.00
2019-05-26T03:14:41.553Z,74.90
2019-05-26T03:17:11.409Z,75.80
2019-05-26T03:19:42.155Z,75.10
2019-05-26T03:22:15.122Z,74.80
2019-05-26T03:24:47.643Z,74.70
2019-05-26T03:27:17.488Z,74.70
2019-05-26T03:29:47.359Z,74.80
2019-05-26T03:32:17.241Z,74.90
2019-05-26T03:34:47.057Z,74.40
2019-05-26T03:37:16.916Z,74.80
2019-05-26T03:39:46.796Z,74.40
2019-05-26T03:42:16.717Z,74.70
2019-05-26T03:44:46.502Z,74.80
2019-05-26T03:47:17.031Z,74.70
2019-05-26T03:49:47.128Z,74.80
2019-05-26T03:52:16.967Z,74.70
2019-05-26T03:54:46.854Z,74.70
2019-05-26T03:57:16.767Z,74.10
2019-05-26T03:59:46.555Z,74.50
2019-05-26T04:02:16.418Z,74.10
2019-05-26T04:04:46.211Z,74.20
2019-05-26T04:07:16.017Z,74.30
2019-05-26T04:10:03.165Z,74.10
2019-05-26T04:12:17.001Z,74.10
2019-05-26T04:14:46.745Z,73.80
2019-05-26T04:17:17.622Z,74.00
2019-05-26T04:19:47.569Z,73.90
2019-05-26T04:22:17.373Z,74.00
2019-05-26T04:24:47.273Z,73.60
2019-05-26T04:27:16.946Z,73.60
2019-05-26T04:29:46.695Z,73.70
2019-05-26T04:32:16.469Z,73.40
2019-05-26T04:34:46.252Z,73.30
2019-05-26T04:37:16.153Z,73.60
2019-05-26T04:39:45.909Z,74.10
2019-05-26T04:42:15.760Z,72.90
2019-05-26T04:44:45.545Z,73.30
2019-05-26T04:47:15.449Z,73.20
2019-05-26T04:49:45.395Z,73.10
2019-05-26T04:52:15.307Z,72.90
2019-05-26T04:54:45.102Z,73.20
2019-05-26T04:57:14.951Z,73.20
2019-05-26T04:59:44.753Z,72.70
2019-05-26T05:02:14.669Z,72.90
2019-05-26T05:04:44.405Z,72.50
2019-05-26T05:07:14.767Z,72.50
2019-05-26T05:09:44.595Z,72.70
2019-05-26T05:12:14.583Z,72.80
2019-05-26T05:14:44.437Z,73.10
2019-05-26T05:17:14.279Z,72.70
2019-05-26T05:19:44.010Z,72.70
2019-05-26T05:22:13.819Z,72.40
2019-05-26T05:24:43.591Z,72.40
2019-05-26T05:27:13.415Z,72.40
2019-05-26T05:29:43.459Z,72.50
2019-05-26T05:32:13.225Z,72.00
2019-05-26T05:34:42.799Z,72.00
2019-05-26T05:37:13.245Z,72.20
2019-05-26T05:39:43.072Z,72.20
2019-05-26T05:42:14.017Z,72.30
2019-05-26T05:44:43.639Z,72.20
2019-05-26T05:47:13.469Z,72.50
2019-05-26T05:49:43.375Z,72.30
2019-05-26T05:52:13.119Z,71.90
2019-05-26T05:54:43.031Z,71.90
2019-05-26T05:57:12.819Z,71.90
2019-05-26T05:59:42.671Z,71.90
2019-05-26T06:02:12.542Z,71.60
2019-05-26T06:04:42.388Z,71.40
2019-05-26T06:07:12.263Z,71.20
2019-05-26T06:09:42.040Z,70.70
2019-05-26T06:12:11.963Z,70.90
2019-05-26T06:14:41.609Z,70.90
2019-05-26T06:17:11.492Z,70.70
2019-05-26T06:19:41.209Z,70.50
2019-05-26T06:22:11.077Z,70.40
2019-05-26T06:24:40.812Z,69.30
2019-05-26T06:27:10.660Z,69.20
2019-05-26T06:29:40.409Z,69.10
2019-05-26T06:32:10.424Z,69.50
2019-05-26T06:34:40.342Z,69.40
2019-05-26T06:37:10.112Z,68.90
2019-05-26T06:39:39.915Z,67.80
2019-05-26T06:42:12.828Z,67.80
2019-05-26T06:44:53.147Z,67.90
2019-05-26T06:47:12.528Z,67.70
2019-05-26T06:49:42.380Z,67.10
2019-05-26T06:52:12.214Z,67.20
2019-05-26T06:54:44.190Z,66.70
2019-05-26T06:57:16.250Z,66.50
2019-05-26T06:59:45.879Z,66.70
2019-05-26T07:02:15.496Z,66.40
2019-05-26T07:04:45.134Z,65.50
2019-05-26T07:07:14.941Z,65.70
2019-05-26T07:09:44.674Z,65.20
2019-05-26T07:12:14.588Z,64.90
2019-05-26T07:14:44.440Z,64.00
2019-05-26T07:17:14.235Z,63.80
2019-05-26T07:19:44.076Z,63.10
2019-05-26T07:22:13.824Z,63.50
2019-05-26T07:24:43.579Z,63.20
2019-05-26T07:27:13.327Z,63.80
2019-05-26T07:29:43.132Z,63.00
2019-05-26T07:32:12.904Z,62.80
2019-05-26T07:34:42.751Z,62.10
2019-05-26T07:37:12.628Z,60.40
2019-05-26T07:39:42.275Z,60.40
2019-05-26T07:42:12.085Z,60.10
2019-05-26T07:44:41.924Z,59.60
2019-05-26T07:47:12.277Z,59.80
2019-05-26T07:49:42.116Z,59.60
2019-05-26T07:52:11.957Z,59.60
2019-05-26T07:54:41.861Z,59.80
2019-05-26T07:57:11.578Z,60.30
2019-05-26T07:59:41.453Z,60.50
2019-05-26T08:02:11.263Z,61.10
2019-05-26T08:04:41.080Z,60.00
2019-05-26T08:07:10.918Z,60.00
2019-05-26T08:09:41.816Z,59.90
2019-05-26T08:12:24.967Z,60.00
2019-05-26T08:14:42.783Z,59.80
2019-05-26T08:17:12.564Z,60.00
2019-05-26T08:19:42.462Z,60.50
2019-05-26T08:22:12.370Z,60.00
2019-05-26T08:24:42.273Z,59.00
2019-05-26T08:27:12.158Z,58.80
2019-05-26T08:29:41.935Z,58.60
2019-05-26T08:32:13.291Z,58.90
2019-05-26T08:34:43.198Z,59.40
2019-05-26T08:37:14.106Z,58.80
2019-05-26T08:39:47.611Z,58.90
2019-05-26T08:42:26.715Z,59.20
2019-05-26T08:44:46.793Z,59.40
2019-05-26T08:47:16.599Z,59.20
2019-05-26T08:49:46.374Z,59.00
2019-05-26T08:52:16.255Z,59.30
2019-05-26T08:54:46.002Z,58.70
2019-05-26T08:57:15.815Z,59.10
2019-05-26T08:59:45.611Z,59.30
2019-05-26T09:02:15.438Z,59.80
2019-05-26T09:04:45.158Z,59.70
2019-05-26T09:07:14.978Z,59.90
2019-05-26T09:09:44.788Z,60.10
2019-05-26T09:12:14.481Z,60.10
2019-05-26T09:14:44.240Z,60.30
2019-05-26T09:17:15.217Z,61.20
2019-05-26T09:19:45.054Z,61.40
2019-05-26T09:22:14.971Z,62.50
2019-05-26T09:24:44.779Z,62.20
2019-05-26T09:27:14.515Z,62.10
2019-05-26T09:29:44.307Z,62.20
2019-05-26T09:32:14.007Z,61.70
2019-05-26T09:34:43.815Z,61.30
2019-05-26T09:37:13.710Z,61.20
2019-05-26T09:39:43.543Z,61.40
2019-05-26T09:42:13.419Z,60.60
2019-05-26T09:44:43.324Z,60.50
2019-05-26T09:47:13.107Z,61.10
2019-05-26T09:49:42.976Z,60.70
2019-05-26T09:52:12.746Z,60.90
2019-05-26T09:54:42.566Z,61.30
2019-05-26T09:57:12.383Z,61.50
2019-05-26T09:59:42.231Z,61.30
2019-05-26T10:02:12.102Z,60.90
2019-05-26T10:04:41.835Z,60.40
2019-05-26T10:07:15.699Z,59.80
2019-05-26T10:09:43.203Z,59.90
2019-05-26T10:12:12.815Z,59.60
2019-05-26T10:14:42.656Z,60.00
2019-05-26T10:17:12.431Z,59.70
2019-05-26T10:19:42.385Z,59.80
2019-05-26T10:22:12.242Z,60.00
2019-05-26T10:24:41.954Z,59.70
2019-05-26T10:27:11.804Z,59.60
2019-05-26T10:29:42.771Z,59.60
2019-05-26T10:32:12.759Z,60.20
2019-05-26T10:34:42.548Z,62.30
2019-05-26T10:37:12.443Z,63.80
2019-05-26T10:39:45.059Z,65.30
2019-05-26T10:42:13.931Z,66.50
2019-05-26T10:44:43.672Z,67.50
2019-05-26T10:47:13.558Z,67.00
2019-05-26T10:49:43.455Z,64.30
2019-05-26T10:52:13.184Z,62.80
2019-05-26T10:54:42.847Z,62.00
2019-05-26T10:57:12.799Z,62.50
2019-05-26T10:59:42.557Z,60.90
2019-05-26T11:02:12.278Z,58.40
2019-05-26T11:04:42.056Z,57.40
2019-05-26T11:07:11.830Z,56.90
2019-05-26T11:09:41.668Z,57.00
2019-05-26T11:12:11.545Z,57.20
2019-05-26T11:14:41.372Z,57.80
2019-05-26T11:17:12.235Z,58.20
2019-05-26T11:19:42.035Z,58.30
2019-05-26T11:22:11.872Z,58.30
2019-05-26T11:24:41.679Z,58.10
2019-05-26T11:27:13.224Z,58.00
2019-05-26T11:29:43.023Z,57.70
2019-05-26T11:32:12.917Z,57.50
2019-05-26T11:34:42.767Z,57.60
2019-05-26T11:37:12.551Z,57.90
2019-05-26T11:39:42.388Z,57.80
2019-05-26T11:42:14.008Z,59.10
2019-05-26T11:44:43.580Z,59.30
2019-05-26T11:47:13.283Z,58.90
2019-05-26T11:49:42.996Z,59.30
2019-05-26T11:52:12.794Z,59.80
2019-05-26T11:54:42.556Z,59.50
2019-05-26T11:57:12.449Z,59.50
2019-05-26T11:59:42.248Z,58.40
2019-05-26T12:02:12.012Z,58.10
2019-05-26T12:04:41.656Z,57.60
2019-05-26T12:07:11.504Z,57.50
2019-05-26T12:09:41.403Z,58.00
2019-05-26T12:12:11.280Z,58.10
2019-05-26T12:14:41.099Z,57.80
2019-05-26T12:17:10.818Z,57.90
2019-05-26T12:19:40.592Z,57.60
2019-05-26T12:22:10.407Z,57.50
2019-05-26T12:24:40.055Z,57.30
2019-05-26T12:27:09.895Z,57.70
2019-05-26T12:29:39.631Z,56.50
2019-05-26T12:32:09.464Z,56.30
2019-05-26T12:34:39.325Z,56.40
2019-05-26T12:37:09.186Z,56.30
2019-05-26T12:39:38.970Z,56.50
2019-05-26T12:42:09.013Z,56.30
2019-05-26T12:44:49.056Z,56.30
2019-05-26T12:47:10.447Z,56.10
2019-05-26T12:49:40.138Z,56.10
2019-05-26T12:52:10.016Z,56.30
2019-05-26T12:54:39.799Z,56.60
2019-05-26T12:57:09.698Z,56.00
2019-05-26T12:59:39.527Z,56.20
2019-05-26T13:02:09.427Z,56.30
2019-05-26T13:04:39.234Z,56.20
2019-05-26T13:07:09.026Z,56.50
2019-05-26T13:09:38.883Z,56.30
2019-05-26T13:12:08.696Z,56.50
2019-05-26T13:14:38.687Z,57.10
2019-05-26T13:17:08.555Z,57.30
2019-05-26T13:19:38.398Z,57.40
2019-05-26T13:22:08.313Z,57.20
2019-05-26T13:24:38.155Z,57.10
2019-05-26T13:27:08.065Z,57.10
2019-05-26T13:29:37.798Z,57.60
2019-05-26T13:32:07.716Z,57.90
2019-05-26T13:34:37.584Z,57.80
2019-05-26T13:37:07.480Z,58.00
2019-05-26T13:39:37.156Z,58.20
2019-05-26T13:42:07.077Z,58.20
2019-05-26T13:44:36.952Z,58.30
2019-05-26T13:47:06.677Z,58.30
2019-05-26T13:49:36.420Z,58.60
2019-05-26T13:52:06.350Z,58.50
2019-05-26T13:54:36.161Z,58.50
2019-05-26T13:57:06.027Z,58.60
2019-05-26T13:59:35.763Z,58.40
2019-05-26T14:02:05.769Z,59.30
2019-05-26T14:04:35.605Z,58.70
2019-05-26T14:07:05.828Z,58.70
2019-05-26T14:09:35.701Z,58.70
2019-05-26T14:12:06.085Z,58.60
2019-05-26T14:14:36.093Z,58.80
2019-05-26T14:17:08.160Z,59.30
2019-05-26T14:19:38.123Z,58.60
2019-05-26T14:22:07.886Z,59.30
2019-05-26T14:24:50.871Z,59.00
2019-05-26T14:27:09.436Z,58.80
2019-05-26T14:29:39.188Z,58.90
2019-05-26T14:32:09.092Z,59.00
2019-05-26T14:34:38.794Z,59.30
2019-05-26T14:37:08.501Z,60.10
2019-05-26T14:39:38.115Z,60.10
2019-05-26T14:42:08.011Z,60.60
2019-05-26T14:44:39.530Z,60.90
2019-05-26T14:47:09.359Z,61.40
2019-05-26T14:49:40.113Z,61.80
2019-05-26T14:52:09.768Z,61.50
2019-05-26T14:54:39.659Z,61.90
2019-05-26T14:57:09.629Z,62.20
2019-05-26T14:59:39.885Z,62.40
2019-05-26T15:02:09.779Z,61.70
2019-05-26T15:04:39.579Z,62.30
2019-05-26T15:07:09.488Z,62.20
2019-05-26T15:09:40.292Z,61.50
2019-05-26T15:12:10.177Z,61.40
2019-05-26T15:14:40.115Z,61.30
2019-05-26T15:17:09.736Z,60.90
2019-05-26T15:19:39.459Z,61.00
2019-05-26T15:22:09.384Z,61.50
2019-05-26T15:24:39.246Z,61.20
2019-05-26T15:27:09.043Z,61.70
2019-05-26T15:29:39.884Z,62.10
2019-05-26T15:32:09.779Z,62.50
2019-05-26T15:34:39.525Z,62.90
2019-05-26T15:37:09.397Z,63.60
2019-05-26T15:39:39.196Z,63.90
2019-05-26T15:42:09.359Z,63.70
2019-05-26T15:44:39.208Z,64.00
2019-05-26T15:47:09.110Z,63.90
2019-05-26T15:49:38.867Z,63.60
2019-05-26T15:52:10.112Z,64.30
2019-05-26T15:54:39.847Z,64.20
2019-05-26T15:57:09.774Z,64.40
2019-05-26T15:59:39.653Z,64.10
2019-05-26T16:02:09.452Z,64.50
2019-05-26T16:04:39.264Z,64.60
2019-05-26T16:07:09.187Z,64.50
2019-05-26T16:09:38.960Z,64.80
2019-05-26T16:12:08.966Z,64.80
2019-05-26T16:14:38.563Z,65.40
2019-05-26T16:17:08.462Z,65.90
2019-05-26T16:19:38.262Z,66.20
2019-05-26T16:22:08.236Z,66.60
2019-05-26T16:24:38.111Z,67.40
2019-05-26T16:27:18.688Z,67.80
2019-05-26T16:29:40.113Z,69.00
2019-05-26T16:32:10.043Z,69.50
2019-05-26T16:34:39.949Z,69.20
2019-05-26T16:37:09.690Z,69.10
2019-05-26T16:39:39.555Z,69.40
2019-05-26T16:42:09.578Z,68.60
2019-05-26T16:44:39.501Z,68.00
2019-05-26T16:47:09.312Z,67.20
2019-05-26T16:49:39.145Z,67.00
2019-05-26T16:52:08.938Z,67.00
2019-05-26T16:54:38.917Z,67.30
2019-05-26T16:57:08.782Z,67.10
2019-05-26T16:59:38.536Z,66.80
2019-05-26T17:02:08.537Z,66.80
2019-05-26T17:04:38.375Z,67.00
2019-05-26T17:07:08.650Z,67.00
2019-05-26T17:09:38.513Z,67.20
2019-05-26T17:12:08.139Z,68.10
2019-05-26T17:14:37.948Z,68.60
2019-05-26T17:17:14.881Z,69.20
2019-05-26T17:19:39.356Z,69.60
2019-05-26T17:22:09.150Z,69.30
2019-05-26T17:24:38.892Z,69.10
2019-05-26T17:27:08.795Z,69.00
2019-05-26T17:29:38.692Z,69.00
2019-05-26T17:32:08.553Z,69.50
2019-05-26T17:34:38.397Z,69.80
2019-05-26T17:37:08.357Z,69.90
2019-05-26T17:39:38.137Z,70.90
2019-05-26T17:42:07.825Z,70.40
2019-05-26T17:44:37.648Z,69.80
2019-05-26T17:47:08.496Z,69.50
2019-05-26T17:49:38.328Z,69.50
2019-05-26T17:52:08.476Z,71.10
2019-05-26T17:54:38.411Z,72.20
2019-05-26T17:57:08.298Z,72.90
2019-05-26T17:59:38.181Z,73.20
2019-05-26T18:02:08.161Z,73.40
2019-05-26T18:04:38.114Z,73.80
2019-05-26T18:07:07.988Z,74.10
2019-05-26T18:09:44.029Z,73.90
2019-05-26T18:12:21.946Z,74.40
2019-05-26T18:14:51.824Z,75.50
2019-05-26T18:17:21.776Z,76.10
2019-05-26T18:19:51.551Z,76.60
2019-05-26T18:22:21.290Z,77.30
2019-05-26T18:24:55.795Z,77.40
2019-05-26T18:27:22.280Z,78.10
2019-05-26T18:29:52.153Z,78.90
2019-05-26T18:32:22.012Z,78.80
2019-05-26T18:34:51.943Z,79.10
2019-05-26T18:37:21.822Z,79.10
2019-05-26T18:39:52.188Z,79.30
2019-05-26T18:42:22.057Z,81.10
2019-05-26T18:44:51.848Z,81.00
2019-05-26T18:47:21.648Z,81.20
2019-05-26T18:49:51.484Z,82.00
2019-05-26T18:52:21.387Z,81.50
2019-05-26T18:54:51.349Z,81.50
2019-05-26T18:57:20.946Z,82.10
2019-05-26T18:59:50.652Z,82.30
2019-05-26T19:02:20.479Z,82.80
2019-05-26T19:04:50.344Z,83.80
2019-05-26T19:07:20.257Z,84.10
2019-05-26T19:09:49.947Z,84.90
2019-05-26T19:12:19.771Z,85.20
2019-05-26T19:14:49.612Z,85.10
2019-05-26T19:17:19.739Z,85.50
2019-05-26T19:19:49.596Z,85.90
2019-05-26T19:22:19.370Z,85.50
2019-05-26T19:24:49.122Z,85.50
2019-05-26T19:27:19.300Z,86.20
2019-05-26T19:29:48.993Z,86.40
2019-05-26T19:32:18.834Z,87.00
2019-05-26T19:34:48.709Z,86.90
2019-05-26T19:37:18.447Z,87.40
2019-05-26T19:39:48.194Z,87.50
2019-05-26T19:42:18.002Z,87.40
2019-05-26T19:44:47.844Z,87.00
2019-05-26T19:47:17.698Z,87.00
2019-05-26T19:49:47.512Z,87.30
2019-05-26T19:52:17.187Z,86.90
2019-05-26T19:54:47.103Z,87.40
2019-05-26T19:57:16.975Z,87.20
2019-05-26T19:59:46.719Z,87.90
2019-05-26T20:02:18.751Z,86.30
2019-05-26T20:04:48.095Z,86.80
2019-05-26T20:07:17.980Z,87.10
2019-05-26T20:09:47.983Z,87.10
2019-05-26T20:12:18.768Z,86.80
2019-05-26T20:14:48.782Z,86.90
2019-05-26T20:17:18.396Z,86.70
2019-05-26T20:19:48.295Z,86.40
2019-05-26T20:22:18.285Z,86.90
2019-05-26T20:24:47.970Z,86.80
2019-05-26T20:27:17.778Z,87.10
2019-05-26T20:29:47.514Z,87.20
2019-05-26T20:32:17.092Z,86.80
2019-05-26T20:34:46.960Z,86.80
2019-05-26T20:37:16.679Z,87.30
2019-05-26T20:39:46.525Z,86.80
2019-05-26T20:42:16.149Z,87.00
2019-05-26T20:44:47.001Z,87.20
2019-05-26T20:47:16.600Z,86.50
2019-05-26T20:49:46.490Z,86.70
2019-05-26T20:52:16.098Z,87.00
2019-05-26T20:54:45.925Z,87.20
2019-05-26T20:57:15.764Z,86.70
2019-05-26T20:59:45.561Z,86.60
2019-05-26T21:02:15.475Z,86.60
2019-05-26T21:04:45.134Z,87.10
2019-05-26T21:07:15.916Z,87.50
2019-05-26T21:09:45.675Z,86.70
2019-05-26T21:12:15.478Z,87.10
2019-05-26T21:14:45.347Z,86.90
2019-05-26T21:17:15.215Z,86.90
2019-05-26T21:19:45.180Z,86.90
2019-05-26T21:22:14.804Z,87.30
2019-05-26T21:24:44.733Z,87.40
2019-05-26T21:27:14.539Z,87.20
2019-05-26T21:29:44.300Z,87.40
2019-05-26T21:32:14.192Z,87.30
2019-05-26T21:34:43.854Z,87.30
2019-05-26T21:37:13.476Z,87.50
2019-05-26T21:39:43.132Z,87.30
2019-05-26T21:42:15.964Z,87.30
2019-05-26T21:44:44.315Z,87.30
2019-05-26T21:47:14.220Z,87.60
2019-05-26T21:49:44.020Z,87.00
2019-05-26T21:52:13.895Z,86.80
2019-05-26T21:54:43.763Z,86.40
2019-05-26T21:57:13.351Z,87.30
2019-05-26T21:59:43.221Z,87.00
2019-05-26T22:02:13.226Z,86.70
2019-05-26T22:04:44.155Z,86.20
2019-05-26T22:07:13.923Z,86.50
2019-05-26T22:09:43.702Z,86.30
2019-05-26T22:12:13.358Z,86.00
2019-05-26T22:14:43.071Z,86.80
2019-05-26T22:17:12.942Z,86.80
2019-05-26T22:19:42.963Z,86.90
2019-05-26T22:22:12.888Z,86.90
2019-05-26T22:24:42.840Z,87.30
2019-05-26T22:27:12.774Z,87.10
2019-05-26T22:29:42.756Z,87.10
2019-05-26T22:32:13.654Z,86.80
2019-05-26T22:34:43.674Z,87.00
2019-05-26T22:37:14.627Z,86.50
2019-05-26T22:39:44.583Z,86.50
2019-05-26T22:42:14.497Z,86.20
2019-05-26T22:44:44.455Z,86.20
2019-05-26T22:47:14.376Z,86.40
2019-05-26T22:49:44.290Z,86.40
2019-05-26T22:52:17.530Z,85.90
2019-05-26T22:54:45.768Z,86.30
2019-05-26T22:57:15.723Z,85.90
2019-05-26T22:59:45.664Z,86.30
2019-05-26T23:02:15.585Z,85.80
2019-05-26T23:04:45.527Z,85.90
2019-05-26T23:07:15.467Z,86.00
2019-05-26T23:09:45.435Z,85.80
2019-05-26T23:12:15.385Z,85.80
2019-05-26T23:14:45.298Z,85.60
2019-05-26T23:17:15.242Z,86.00
2019-05-26T23:19:45.232Z,85.90
2019-05-26T23:22:15.183Z,85.80
2019-05-26T23:24:44.966Z,85.80
2019-05-26T23:27:14.807Z,85.90
2019-05-26T23:29:44.660Z,85.70
2019-05-26T23:32:14.515Z,86.10
2019-05-26T23:34:44.256Z,85.90
2019-05-26T23:37:14.076Z,85.70
2019-05-26T23:39:43.852Z,86.20
2019-05-26T23:42:13.766Z,86.20
2019-05-26T23:44:44.610Z,86.00
2019-05-26T23:47:14.485Z,85.60
2019-05-26T23:49:44.237Z,85.60
2019-05-26T23:52:14.008Z,85.50
2019-05-26T23:54:43.890Z,85.70
2019-05-26T23:57:13.664Z,85.60
2019-05-26T23:59:43.396Z,85.80
